createdAt,value
2023-03-17T18:07:02.936Z,15.72
2023-03-17T18:08:02.892Z,15.80
2023-03-17T18:09:02.827Z,15.76
2023-03-17T18:10:02.765Z,15.69
2023-03-17T18:11:02.734Z,15.70
2023-03-17T18:12:02.672Z,15.66
2023-03-17T18:13:02.639Z,15.70
2023-03-17T18:14:02.581Z,15.69
2023-03-17T18:15:02.534Z,15.72
2023-03-17T18:16:02.581Z,15.60
2023-03-17T18:17:02.454Z,15.59
2023-03-17T18:18:02.406Z,15.66
2023-03-17T18:19:02.362Z,15.65
2023-03-17T18:20:02.318Z,15.60
2023-03-17T18:21:02.272Z,15.63
2023-03-17T18:22:02.239Z,15.54
2023-03-17T18:23:02.228Z,15.54
2023-03-17T18:24:02.153Z,15.66
2023-03-17T18:25:02.093Z,15.69
2023-03-17T18:26:02.054Z,15.66
2023-03-17T18:27:02.076Z,15.59
2023-03-17T18:28:01.975Z,15.54
2023-03-17T18:29:01.939Z,15.48
2023-03-17T18:30:01.883Z,15.59
2023-03-17T18:31:01.847Z,15.52
2023-03-17T18:32:01.907Z,15.54
2023-03-17T18:33:01.815Z,15.59
2023-03-17T18:34:01.713Z,15.50
2023-03-17T18:35:01.683Z,15.51
2023-03-17T18:36:01.691Z,15.52
2023-03-17T18:37:01.597Z,15.47
2023-03-17T18:38:01.552Z,15.44
2023-03-17T18:39:01.524Z,15.50
2023-03-17T18:40:18.906Z,15.43
2023-03-17T18:41:01.422Z,15.39
2023-03-17T18:42:01.375Z,15.47
2023-03-17T18:43:01.326Z,15.36
2023-03-17T18:44:01.282Z,15.33
2023-03-17T18:45:01.270Z,15.33
2023-03-17T18:46:01.266Z,15.33
2023-03-17T18:47:01.162Z,15.33
2023-03-17T18:48:01.130Z,15.22
2023-03-17T18:49:01.092Z,15.19
2023-03-17T18:50:01.045Z,15.23
2023-03-17T18:51:00.994Z,15.19
2023-03-17T18:52:00.943Z,15.22
2023-03-17T18:53:00.904Z,15.14
2023-03-17T18:54:00.864Z,15.23
2023-03-17T18:55:00.865Z,15.19
2023-03-17T18:56:00.776Z,15.22
2023-03-17T18:57:00.739Z,15.10
2023-03-17T18:58:00.695Z,15.07
2023-03-17T18:59:00.659Z,15.22
2023-03-17T19:00:00.604Z,15.07
2023-03-17T19:01:00.661Z,15.08
2023-03-17T19:02:00.528Z,15.15
2023-03-17T19:03:00.533Z,15.10
2023-03-17T19:04:00.436Z,15.08
2023-03-17T19:05:00.403Z,15.11
2023-03-17T19:06:00.360Z,15.10
2023-03-17T19:07:00.314Z,15.14
2023-03-17T19:08:00.265Z,15.08
2023-03-17T19:09:00.239Z,15.08
2023-03-17T19:10:00.202Z,15.10
2023-03-17T19:11:00.198Z,15.08
2023-03-17T19:12:00.114Z,15.12
2023-03-17T19:13:00.090Z,15.04
2023-03-17T19:14:00.042Z,15.00
2023-03-17T19:15:00.000Z,15.07
2023-03-17T19:15:59.973Z,15.00
2023-03-17T19:16:59.982Z,15.07
2023-03-17T19:17:59.839Z,15.00
2023-03-17T19:18:59.810Z,14.99
2023-03-17T19:19:59.770Z,14.99
2023-03-17T19:20:59.730Z,14.99
2023-03-17T19:21:59.677Z,14.94
2023-03-17T19:22:59.645Z,15.02
2023-03-17T19:23:59.589Z,14.97
2023-03-17T19:24:59.554Z,14.97
2023-03-17T19:25:59.501Z,14.99
2023-03-17T19:26:59.488Z,15.02
2023-03-17T19:27:59.428Z,15.00
2023-03-17T19:28:59.379Z,15.02
2023-03-17T19:29:59.333Z,14.87
2023-03-17T19:30:59.363Z,14.85
2023-03-17T19:31:59.249Z,14.86
2023-03-17T19:32:59.326Z,14.86
2023-03-17T19:33:59.160Z,14.86
2023-03-17T19:34:59.143Z,14.85
2023-03-17T19:35:59.150Z,14.89
2023-03-17T19:36:59.030Z,14.86
2023-03-17T19:37:58.998Z,14.81
2023-03-17T19:38:58.977Z,14.82
2023-03-17T19:39:58.915Z,14.81
2023-03-17T19:40:58.868Z,14.87
2023-03-17T19:41:58.829Z,14.86
2023-03-17T19:42:58.798Z,14.87
2023-03-17T19:43:58.737Z,14.87
2023-03-17T19:44:58.714Z,14.81
2023-03-17T19:45:58.663Z,14.81
2023-03-17T19:46:58.629Z,14.85
2023-03-17T19:47:58.573Z,14.77
2023-03-17T19:48:58.534Z,14.78
2023-03-17T19:49:58.483Z,14.82
2023-03-17T19:50:58.437Z,14.78
2023-03-17T19:51:58.393Z,14.81
2023-03-17T19:52:58.352Z,14.73
2023-03-17T19:53:58.330Z,14.77
2023-03-17T19:54:58.273Z,14.73
2023-03-17T19:55:58.267Z,14.68
2023-03-17T19:56:58.205Z,14.62
2023-03-17T19:57:58.137Z,14.73
2023-03-17T19:58:58.115Z,14.67
2023-03-17T19:59:58.049Z,14.62
2023-03-17T20:00:58.010Z,14.74
2023-03-17T20:01:57.996Z,14.71
2023-03-17T20:02:57.924Z,14.68
2023-03-17T20:03:58.015Z,14.66
2023-03-17T20:04:57.855Z,14.74
2023-03-17T20:05:57.793Z,14.67
2023-03-17T20:06:57.759Z,14.66
2023-03-17T20:07:57.726Z,14.62
2023-03-17T20:08:57.674Z,14.62
2023-03-17T20:09:57.629Z,14.62
2023-03-17T20:10:57.595Z,14.58
2023-03-17T20:11:57.537Z,14.61
2023-03-17T20:12:57.494Z,14.63
2023-03-17T20:13:57.455Z,14.58
2023-03-17T20:14:57.433Z,14.56
2023-03-17T20:15:57.852Z,14.51
2023-03-17T20:16:57.328Z,14.55
2023-03-17T20:17:57.278Z,14.61
2023-03-17T20:18:57.240Z,14.61
2023-03-17T20:19:57.202Z,14.49
2023-03-17T20:20:57.160Z,14.56
2023-03-17T20:21:57.112Z,14.59
2023-03-17T20:22:57.076Z,14.55
2023-03-17T20:23:57.031Z,14.55
2023-03-17T20:24:57.001Z,14.56
2023-03-17T20:25:56.960Z,14.58
2023-03-17T20:26:56.936Z,14.56
2023-03-17T20:27:56.856Z,14.55
2023-03-17T20:28:56.845Z,14.49
2023-03-17T20:29:56.769Z,14.51
2023-03-17T20:30:56.761Z,14.53
2023-03-17T20:32:56.695Z,14.45
2023-03-17T20:33:56.622Z,14.55
2023-03-17T20:34:59.176Z,14.51
2023-03-17T20:35:56.574Z,14.58
2023-03-17T20:36:56.473Z,14.58
2023-03-17T20:37:56.428Z,14.38
2023-03-17T20:38:56.395Z,14.53
2023-03-17T20:39:56.367Z,14.53
2023-03-17T20:40:56.333Z,14.52
2023-03-17T20:41:56.321Z,14.52
2023-03-17T20:42:56.227Z,14.52
2023-03-17T20:43:56.285Z,14.52
2023-03-17T20:44:56.125Z,14.43
2023-03-17T20:48:21.706Z,14.49
2023-03-17T20:49:22.652Z,14.53
2023-03-17T20:50:21.595Z,14.48
2023-03-17T20:51:21.559Z,14.48
2023-03-17T20:52:21.509Z,14.48
2023-03-17T20:53:21.464Z,14.45
2023-03-17T20:54:22.842Z,14.40
2023-03-17T20:55:21.380Z,14.52
2023-03-17T20:56:21.337Z,14.43
2023-03-17T20:57:21.297Z,14.48
2023-03-17T20:58:21.253Z,14.44
2023-03-17T20:59:21.211Z,14.48
2023-03-17T21:00:21.170Z,14.48
2023-03-17T21:01:21.491Z,14.55
2023-03-17T21:02:21.084Z,14.58
2023-03-17T21:03:21.141Z,14.45
2023-03-17T21:04:21.018Z,14.44
2023-03-17T21:05:20.967Z,14.52
2023-03-17T21:06:20.936Z,14.52
2023-03-17T21:07:20.870Z,14.49
2023-03-17T21:08:20.825Z,14.52
2023-03-17T21:09:20.784Z,14.48
2023-03-17T21:10:20.747Z,14.38
2023-03-17T21:11:20.703Z,14.34
2023-03-17T21:12:20.657Z,14.40
2023-03-17T21:13:20.612Z,14.31
2023-03-17T21:14:20.570Z,14.37
2023-03-17T21:15:20.525Z,14.25
2023-03-17T21:16:20.535Z,14.31
2023-03-17T21:17:20.455Z,14.33
2023-03-17T21:18:20.402Z,14.26
2023-03-17T21:19:20.352Z,14.26
2023-03-17T21:20:20.337Z,14.30
2023-03-17T21:21:20.267Z,14.26
2023-03-17T21:22:20.224Z,14.19
2023-03-17T21:23:20.199Z,14.22
2023-03-17T21:24:20.136Z,14.15
2023-03-17T21:25:20.123Z,14.13
2023-03-17T21:26:20.065Z,14.12
2023-03-17T21:27:20.005Z,14.08
2023-03-17T21:28:19.967Z,14.08
2023-03-17T21:29:19.927Z,14.00
2023-03-17T21:30:19.878Z,13.97
2023-03-17T21:31:19.856Z,13.94
2023-03-17T21:32:19.795Z,13.91
2023-03-17T21:33:19.754Z,13.94
2023-03-17T21:34:19.724Z,13.95
2023-03-17T21:35:19.671Z,13.97
2023-03-17T21:36:19.636Z,13.87
2023-03-17T21:37:19.574Z,13.80
2023-03-17T21:38:19.531Z,13.83
2023-03-17T21:39:19.495Z,13.82
2023-03-17T21:40:19.445Z,13.80
2023-03-17T21:41:19.398Z,13.80
2023-03-17T21:42:19.359Z,13.78
2023-03-17T21:43:19.324Z,13.86
2023-03-17T21:44:19.273Z,13.86
2023-03-17T21:45:22.864Z,13.82
2023-03-17T21:46:19.215Z,13.76
2023-03-17T21:47:19.149Z,13.78
2023-03-17T21:48:19.116Z,13.83
2023-03-17T21:49:19.056Z,13.76
2023-03-17T21:50:19.043Z,13.82
2023-03-17T21:51:18.969Z,13.79
2023-03-17T22:19:24.617Z,13.78
2023-03-17T22:20:24.551Z,13.71
2023-03-17T22:21:24.532Z,13.71
2023-03-17T22:23:16.865Z,13.70
2023-03-17T22:24:16.814Z,13.80
2023-03-17T22:25:16.775Z,13.76
2023-03-17T22:26:16.727Z,13.76
2023-03-17T22:27:16.696Z,13.76
2023-03-17T22:28:17.658Z,13.73
2023-03-17T22:29:16.622Z,13.70
2023-03-17T22:30:16.563Z,13.73
2023-03-17T22:31:16.633Z,13.67
2023-03-17T22:32:16.470Z,13.71
2023-03-17T22:33:16.431Z,13.67
2023-03-17T22:40:13.447Z,13.57
2023-03-17T22:41:13.396Z,13.60
2023-03-17T22:42:13.338Z,13.54
2023-03-17T22:43:13.299Z,13.57
2023-03-17T22:44:15.877Z,13.54
2023-03-17T22:45:13.312Z,13.57
2023-03-17T22:46:13.246Z,13.55
2023-03-17T22:47:13.128Z,13.52
2023-03-17T22:48:13.081Z,13.58
2023-03-17T22:49:13.032Z,13.52
2023-03-17T22:50:12.996Z,13.55
2023-03-17T22:51:12.947Z,13.39
2023-03-17T22:52:12.902Z,13.52
2023-03-17T22:53:12.863Z,13.46
2023-03-17T22:54:12.814Z,13.46
2023-03-17T22:55:12.778Z,13.46
2023-03-17T22:56:12.748Z,13.50
2023-03-17T22:57:12.685Z,13.47
2023-03-17T22:58:12.642Z,13.46
2023-03-17T22:59:12.600Z,13.39
2023-03-17T23:00:12.559Z,13.28
2023-03-17T23:01:12.570Z,13.39
2023-03-17T23:02:12.468Z,13.39
2023-03-17T23:03:12.440Z,13.28
2023-03-17T23:04:12.533Z,13.36
2023-03-17T23:05:12.343Z,13.33
2023-03-17T23:06:12.321Z,13.39
2023-03-17T23:07:12.313Z,13.28
2023-03-17T23:08:12.239Z,13.26
2023-03-17T23:09:12.183Z,13.27
2023-03-17T23:10:12.149Z,13.33
2023-03-17T23:11:12.076Z,13.24
2023-03-17T23:12:12.052Z,13.26
2023-03-17T23:13:11.990Z,13.16
2023-03-17T23:14:11.949Z,13.26
2023-03-17T23:15:11.958Z,13.19
2023-03-17T23:16:11.861Z,13.21
2023-03-17T23:17:11.885Z,13.20
2023-03-17T23:18:11.786Z,13.21
2023-03-17T23:19:11.749Z,13.12
2023-03-17T23:20:11.714Z,13.13
2023-03-17T23:21:11.646Z,13.19
2023-03-17T23:22:11.600Z,13.20
2023-03-17T23:23:11.590Z,13.17
2023-03-17T23:24:11.515Z,13.26
2023-03-17T23:25:11.467Z,13.19
2023-03-17T23:26:11.425Z,13.13
2023-03-17T23:27:11.383Z,13.19
2023-03-17T23:28:11.364Z,13.02
2023-03-17T23:29:11.294Z,13.17
2023-03-17T23:30:11.863Z,13.13
2023-03-17T23:31:11.299Z,13.13
2023-03-17T23:32:11.166Z,13.11
2023-03-17T23:33:11.182Z,13.12
2023-03-17T23:34:11.083Z,13.12
2023-03-17T23:35:11.030Z,13.02
2023-03-17T23:36:10.992Z,13.01
2023-03-17T23:37:10.946Z,13.06
2023-03-17T23:38:10.902Z,13.03
2023-03-17T23:39:10.852Z,13.13
2023-03-17T23:40:10.837Z,13.06
2023-03-17T23:41:10.765Z,13.03
2023-03-17T23:42:10.723Z,13.03
2023-03-17T23:43:10.681Z,13.05
2023-03-17T23:44:10.658Z,13.02
2023-03-17T23:45:10.592Z,13.03
2023-03-17T23:46:10.586Z,13.05
2023-03-17T23:47:10.499Z,13.06
2023-03-17T23:48:10.490Z,12.93
2023-03-17T23:49:10.424Z,12.95
2023-03-17T23:50:10.370Z,12.91
2023-03-17T23:51:10.327Z,12.94
2023-03-17T23:52:10.281Z,12.94
2023-03-17T23:53:10.237Z,12.93
2023-03-17T23:54:10.193Z,12.94
2023-03-17T23:55:10.177Z,12.88
2023-03-17T23:56:10.107Z,12.98
2023-03-17T23:57:10.061Z,12.91
2023-03-17T23:58:10.021Z,12.90
2023-03-17T23:59:09.973Z,12.87
